sensor_id;sensor_type;location;lat;lon;timestamp;P1;durP1;ratioP1;P2;durP2;ratioP2
26864;SDS011;40618;51.166;10.322;2022-12-15T00:01:08;39.58;;;17.38;;
26864;SDS011;40618;51.166;10.322;2022-12-15T00:03:52;35.28;;;15.77;;
26864;SDS011;40618;51.166;10.322;2022-12-15T00:06:36;32.53;;;15.30;;
26864;SDS011;40618;51.166;10.322;2022-12-15T00:09:21;36.72;;;14.05;;
26864;SDS011;40618;51.166;10.322;2022-12-15T00:12:05;39.22;;;15.13;;
26864;SDS011;40618;51.166;10.322;2022-12-15T00:14:49;30.80;;;13.45;;
26864;SDS011;40618;51.166;10.322;2022-12-15T00:17:33;35.20;;;14.30;;
26864;SDS011;40618;51.166;10.322;2022-12-15T00:20:18;32.67;;;13.10;;
26864;SDS011;40618;51.166;10.322;2022-12-15T00:23:05;27.98;;;13.32;;
26864;SDS011;40618;51.166;10.322;2022-12-15T00:25:54;31.52;;;13.82;;
26864;SDS011;40618;51.166;10.322;2022-12-15T00:28:38;27.10;;;13.18;;
26864;SDS011;40618;51.166;10.322;2022-12-15T00:31:22;31.75;;;13.65;;
26864;SDS011;40618;51.166;10.322;2022-12-15T00:34:06;35.00;;;14.50;;
26864;SDS011;40618;51.166;10.322;2022-12-15T00:36:50;30.90;;;13.77;;
26864;SDS011;40618;51.166;10.322;2022-12-15T00:39:34;33.60;;;13.65;;
26864;SDS011;40618;51.166;10.322;2022-12-15T00:42:00;29.48;;;13.23;;
26864;SDS011;40618;51.166;10.322;2022-12-15T00:44:25;33.08;;;12.30;;
26864;SDS011;40618;51.166;10.322;2022-12-15T00:46:51;28.52;;;13.57;;
26864;SDS011;40618;51.166;10.322;2022-12-15T00:49:20;27.85;;;13.15;;
26864;SDS011;40618;51.166;10.322;2022-12-15T00:52:06;30.13;;;13.52;;
26864;SDS011;40618;51.166;10.322;2022-12-15T00:54:51;29.90;;;13.23;;
26864;SDS011;40618;51.166;10.322;2022-12-15T00:57:36;28.33;;;12.88;;
26864;SDS011;40618;51.166;10.322;2022-12-15T01:00:21;36.38;;;13.57;;
26864;SDS011;40618;51.166;10.322;2022-12-15T01:03:16;26.10;;;12.57;;
26864;SDS011;40618;51.166;10.322;2022-12-15T01:06:05;29.05;;;13.25;;
26864;SDS011;40618;51.166;10.322;2022-12-15T01:08:56;27.33;;;12.57;;
26864;SDS011;40618;51.166;10.322;2022-12-15T01:11:41;23.65;;;11.52;;
26864;SDS011;40618;51.166;10.322;2022-12-15T01:14:26;25.83;;;12.23;;
26864;SDS011;40618;51.166;10.322;2022-12-15T01:17:11;30.13;;;12.18;;
26864;SDS011;40618;51.166;10.322;2022-12-15T01:19:56;26.60;;;12.38;;
26864;SDS011;40618;51.166;10.322;2022-12-15T01:22:40;33.75;;;12.57;;
26864;SDS011;40618;51.166;10.322;2022-12-15T01:25:07;28.40;;;12.93;;
26864;SDS011;40618;51.166;10.322;2022-12-15T01:27:35;24.25;;;12.68;;
26864;SDS011;40618;51.166;10.322;2022-12-15T01:30:01;23.08;;;11.55;;
26864;SDS011;40618;51.166;10.322;2022-12-15T01:32:27;25.92;;;11.55;;
26864;SDS011;40618;51.166;10.322;2022-12-15T01:34:53;28.27;;;12.82;;
26864;SDS011;40618;51.166;10.322;2022-12-15T01:37:19;26.65;;;11.98;;
26864;SDS011;40618;51.166;10.322;2022-12-15T01:39:44;25.23;;;12.35;;
26864;SDS011;40618;51.166;10.322;2022-12-15T01:42:29;22.85;;;11.10;;
26864;SDS011;40618;51.166;10.322;2022-12-15T01:48:02;22.20;;;11.38;;
26864;SDS011;40618;51.166;10.322;2022-12-15T01:50:41;26.17;;;10.68;;
26864;SDS011;40618;51.166;10.322;2022-12-15T01:53:15;22.75;;;10.43;;
26864;SDS011;40618;51.166;10.322;2022-12-15T01:55:43;20.15;;;10.65;;
26864;SDS011;40618;51.166;10.322;2022-12-15T01:58:11;22.50;;;11.07;;
26864;SDS011;40618;51.166;10.322;2022-12-15T02:00:41;28.40;;;11.13;;
26864;SDS011;40618;51.166;10.322;2022-12-15T02:03:07;19.35;;;10.18;;
26864;SDS011;40618;51.166;10.322;2022-12-15T02:05:34;23.83;;;11.75;;
26864;SDS011;40618;51.166;10.322;2022-12-15T02:08:01;24.95;;;11.90;;
26864;SDS011;40618;51.166;10.322;2022-12-15T02:10:33;25.33;;;11.40;;
26864;SDS011;40618;51.166;10.322;2022-12-15T02:14:02;21.25;;;10.40;;
26864;SDS011;40618;51.166;10.322;2022-12-15T02:22:50;22.77;;;11.20;;
26864;SDS011;40618;51.166;10.322;2022-12-15T02:32:42;24.60;;;10.68;;
26864;SDS011;40618;51.166;10.322;2022-12-15T02:35:11;26.92;;;11.55;;
26864;SDS011;40618;51.166;10.322;2022-12-15T02:37:49;23.25;;;10.65;;
26864;SDS011;40618;51.166;10.322;2022-12-15T02:40:15;24.33;;;11.68;;
26864;SDS011;40618;51.166;10.322;2022-12-15T02:42:42;25.83;;;11.27;;
26864;SDS011;40618;51.166;10.322;2022-12-15T02:45:15;24.10;;;11.25;;
26864;SDS011;40618;51.166;10.322;2022-12-15T03:00:04;23.80;;;9.95;;
26864;SDS011;40618;51.166;10.322;2022-12-15T03:02:36;21.77;;;10.88;;
26864;SDS011;40618;51.166;10.322;2022-12-15T03:05:07;24.35;;;10.15;;
26864;SDS011;40618;51.166;10.322;2022-12-15T03:07:36;20.92;;;10.63;;
26864;SDS011;40618;51.166;10.322;2022-12-15T03:10:03;21.67;;;10.68;;
26864;SDS011;40618;51.166;10.322;2022-12-15T03:12:30;26.00;;;11.95;;
26864;SDS011;40618;51.166;10.322;2022-12-15T03:14:56;22.52;;;10.82;;
26864;SDS011;40618;51.166;10.322;2022-12-15T03:17:22;26.77;;;12.00;;
26864;SDS011;40618;51.166;10.322;2022-12-15T03:19:48;23.73;;;11.23;;
26864;SDS011;40618;51.166;10.322;2022-12-15T03:22:13;24.38;;;11.27;;
26864;SDS011;40618;51.166;10.322;2022-12-15T03:24:39;25.02;;;11.23;;
26864;SDS011;40618;51.166;10.322;2022-12-15T03:27:04;22.17;;;11.15;;
26864;SDS011;40618;51.166;10.322;2022-12-15T03:29:30;20.55;;;10.40;;
26864;SDS011;40618;51.166;10.322;2022-12-15T03:31:56;26.20;;;10.63;;
26864;SDS011;40618;51.166;10.322;2022-12-15T03:34:21;25.45;;;10.27;;
26864;SDS011;40618;51.166;10.322;2022-12-15T03:36:47;22.20;;;10.60;;
26864;SDS011;40618;51.166;10.322;2022-12-15T03:39:12;22.38;;;11.43;;
26864;SDS011;40618;51.166;10.322;2022-12-15T03:41:38;21.75;;;10.52;;
26864;SDS011;40618;51.166;10.322;2022-12-15T03:44:05;23.85;;;11.15;;
26864;SDS011;40618;51.166;10.322;2022-12-15T03:46:31;25.08;;;11.30;;
26864;SDS011;40618;51.166;10.322;2022-12-15T03:48:57;21.42;;;10.98;;
26864;SDS011;40618;51.166;10.322;2022-12-15T03:51:23;27.88;;;12.30;;
26864;SDS011;40618;51.166;10.322;2022-12-15T03:53:48;22.13;;;10.48;;
26864;SDS011;40618;51.166;10.322;2022-12-15T03:56:15;25.92;;;11.13;;
26864;SDS011;40618;51.166;10.322;2022-12-15T03:58:41;22.98;;;10.30;;
26864;SDS011;40618;51.166;10.322;2022-12-15T04:01:11;22.65;;;11.20;;
26864;SDS011;40618;51.166;10.322;2022-12-15T04:03:51;25.25;;;11.45;;
26864;SDS011;40618;51.166;10.322;2022-12-15T04:06:17;24.25;;;11.32;;
26864;SDS011;40618;51.166;10.322;2022-12-15T04:08:43;26.90;;;11.25;;
26864;SDS011;40618;51.166;10.322;2022-12-15T04:11:08;27.27;;;11.40;;
26864;SDS011;40618;51.166;10.322;2022-12-15T04:13:34;28.95;;;13.23;;
26864;SDS011;40618;51.166;10.322;2022-12-15T04:16:00;26.60;;;12.43;;
26864;SDS011;40618;51.166;10.322;2022-12-15T04:18:27;25.55;;;11.85;;
26864;SDS011;40618;51.166;10.322;2022-12-15T04:20:53;26.42;;;12.73;;
26864;SDS011;40618;51.166;10.322;2022-12-15T04:23:19;27.38;;;14.65;;
26864;SDS011;40618;51.166;10.322;2022-12-15T04:25:45;39.70;;;18.05;;
26864;SDS011;40618;51.166;10.322;2022-12-15T04:28:29;36.63;;;17.73;;
26864;SDS011;40618;51.166;10.322;2022-12-15T04:31:15;29.25;;;13.80;;
26864;SDS011;40618;51.166;10.322;2022-12-15T04:34:05;30.50;;;13.57;;
26864;SDS011;40618;51.166;10.322;2022-12-15T04:36:55;22.17;;;11.15;;
26864;SDS011;40618;51.166;10.322;2022-12-15T04:39:41;26.10;;;11.98;;
26864;SDS011;40618;51.166;10.322;2022-12-15T04:42:31;50.10;;;22.92;;
26864;SDS011;40618;51.166;10.322;2022-12-15T04:45:19;76.82;;;33.92;;
26864;SDS011;40618;51.166;10.322;2022-12-15T04:48:07;36.60;;;17.63;;
26864;SDS011;40618;51.166;10.322;2022-12-15T04:50:52;45.40;;;19.73;;
26864;SDS011;40618;51.166;10.322;2022-12-15T04:53:37;26.75;;;12.75;;
26864;SDS011;40618;51.166;10.322;2022-12-15T04:56:21;36.17;;;12.73;;
26864;SDS011;40618;51.166;10.322;2022-12-15T04:59:05;28.17;;;13.55;;
26864;SDS011;40618;51.166;10.322;2022-12-15T05:01:50;31.77;;;14.15;;
26864;SDS011;40618;51.166;10.322;2022-12-15T05:04:34;57.58;;;24.00;;
26864;SDS011;40618;51.166;10.322;2022-12-15T05:07:18;53.42;;;23.90;;
26864;SDS011;40618;51.166;10.322;2022-12-15T05:10:03;52.10;;;23.48;;
26864;SDS011;40618;51.166;10.322;2022-12-15T05:12:48;46.42;;;21.55;;
26864;SDS011;40618;51.166;10.322;2022-12-15T05:15:33;36.97;;;16.98;;
26864;SDS011;40618;51.166;10.322;2022-12-15T05:18:18;36.45;;;16.42;;
26864;SDS011;40618;51.166;10.322;2022-12-15T05:21:03;29.88;;;15.45;;
26864;SDS011;40618;51.166;10.322;2022-12-15T05:23:47;32.17;;;14.80;;
26864;SDS011;40618;51.166;10.322;2022-12-15T05:26:32;35.42;;;18.27;;
26864;SDS011;40618;51.166;10.322;2022-12-15T05:29:16;30.88;;;15.20;;
26864;SDS011;40618;51.166;10.322;2022-12-15T05:32:00;32.50;;;13.48;;
26864;SDS011;40618;51.166;10.322;2022-12-15T05:34:30;30.70;;;15.35;;
26864;SDS011;40618;51.166;10.322;2022-12-15T05:36:59;41.70;;;19.58;;
26864;SDS011;40618;51.166;10.322;2022-12-15T05:39:27;42.28;;;19.30;;
26864;SDS011;40618;51.166;10.322;2022-12-15T05:41:54;34.75;;;15.48;;
26864;SDS011;40618;51.166;10.322;2022-12-15T05:44:21;62.70;;;26.35;;
26864;SDS011;40618;51.166;10.322;2022-12-15T05:46:49;41.35;;;21.58;;
26864;SDS011;40618;51.166;10.322;2022-12-15T05:49:15;47.45;;;18.73;;
26864;SDS011;40618;51.166;10.322;2022-12-15T05:51:43;33.08;;;16.35;;
26864;SDS011;40618;51.166;10.322;2022-12-15T05:54:12;45.53;;;19.65;;
26864;SDS011;40618;51.166;10.322;2022-12-15T05:56:43;34.05;;;15.07;;
26864;SDS011;40618;51.166;10.322;2022-12-15T05:59:10;38.25;;;19.48;;
26864;SDS011;40618;51.166;10.322;2022-12-15T06:01:37;35.78;;;17.52;;
26864;SDS011;40618;51.166;10.322;2022-12-15T06:04:02;31.65;;;14.73;;
26864;SDS011;40618;51.166;10.322;2022-12-15T06:06:28;31.88;;;15.07;;
26864;SDS011;40618;51.166;10.322;2022-12-15T06:08:54;32.08;;;13.48;;
26864;SDS011;40618;51.166;10.322;2022-12-15T06:11:20;29.40;;;13.35;;
26864;SDS011;40618;51.166;10.322;2022-12-15T06:13:46;25.30;;;13.30;;
26864;SDS011;40618;51.166;10.322;2022-12-15T06:16:13;34.03;;;17.63;;
26864;SDS011;40618;51.166;10.322;2022-12-15T06:18:51;34.72;;;15.35;;
26864;SDS011;40618;51.166;10.322;2022-12-15T06:21:21;31.20;;;15.63;;
26864;SDS011;40618;51.166;10.322;2022-12-15T06:23:50;30.00;;;14.23;;
26864;SDS011;40618;51.166;10.322;2022-12-15T06:29:02;38.75;;;19.08;;
26864;SDS011;40618;51.166;10.322;2022-12-15T06:31:30;50.47;;;25.73;;
26864;SDS011;40618;51.166;10.322;2022-12-15T06:33:57;40.75;;;18.25;;
26864;SDS011;40618;51.166;10.322;2022-12-15T06:36:24;31.63;;;15.95;;
26864;SDS011;40618;51.166;10.322;2022-12-15T06:38:50;31.75;;;15.68;;
26864;SDS011;40618;51.166;10.322;2022-12-15T06:41:17;37.00;;;17.25;;
26864;SDS011;40618;51.166;10.322;2022-12-15T06:43:50;35.72;;;18.52;;
26864;SDS011;40618;51.166;10.322;2022-12-15T06:46:22;34.30;;;18.17;;
26864;SDS011;40618;51.166;10.322;2022-12-15T06:48:49;35.58;;;16.35;;
26864;SDS011;40618;51.166;10.322;2022-12-15T06:51:15;38.45;;;15.38;;
26864;SDS011;40618;51.166;10.322;2022-12-15T06:53:42;32.63;;;16.02;;
26864;SDS011;40618;51.166;10.322;2022-12-15T06:56:26;30.23;;;14.43;;
26864;SDS011;40618;51.166;10.322;2022-12-15T06:58:57;29.42;;;13.57;;
26864;SDS011;40618;51.166;10.322;2022-12-15T07:01:23;39.83;;;19.50;;
26864;SDS011;40618;51.166;10.322;2022-12-15T07:03:50;31.30;;;16.08;;
26864;SDS011;40618;51.166;10.322;2022-12-15T07:06:17;35.75;;;16.83;;
26864;SDS011;40618;51.166;10.322;2022-12-15T07:08:43;48.03;;;20.85;;
26864;SDS011;40618;51.166;10.322;2022-12-15T07:11:18;31.67;;;15.85;;
26864;SDS011;40618;51.166;10.322;2022-12-15T07:13:49;30.80;;;15.30;;
26864;SDS011;40618;51.166;10.322;2022-12-15T07:16:18;34.22;;;14.95;;
26864;SDS011;40618;51.166;10.322;2022-12-15T07:18:45;35.60;;;15.63;;
26864;SDS011;40618;51.166;10.322;2022-12-15T07:21:11;35.83;;;17.58;;
26864;SDS011;40618;51.166;10.322;2022-12-15T07:23:36;38.22;;;18.60;;
26864;SDS011;40618;51.166;10.322;2022-12-15T07:26:03;34.67;;;17.05;;
26864;SDS011;40618;51.166;10.322;2022-12-15T07:28:31;29.58;;;15.57;;
26864;SDS011;40618;51.166;10.322;2022-12-15T07:31:02;33.83;;;17.13;;
26864;SDS011;40618;51.166;10.322;2022-12-15T07:33:33;32.47;;;14.73;;
26864;SDS011;40618;51.166;10.322;2022-12-15T07:36:00;31.50;;;14.88;;
26864;SDS011;40618;51.166;10.322;2022-12-15T07:38:27;33.90;;;14.90;;
26864;SDS011;40618;51.166;10.322;2022-12-15T07:40:53;28.52;;;14.63;;
26864;SDS011;40618;51.166;10.322;2022-12-15T07:43:20;27.75;;;13.50;;
26864;SDS011;40618;51.166;10.322;2022-12-15T07:45:52;24.15;;;11.93;;
26864;SDS011;40618;51.166;10.322;2022-12-15T07:48:19;29.38;;;11.82;;
26864;SDS011;40618;51.166;10.322;2022-12-15T07:50:45;25.98;;;12.50;;
26864;SDS011;40618;51.166;10.322;2022-12-15T07:53:11;24.52;;;11.93;;
26864;SDS011;40618;51.166;10.322;2022-12-15T07:55:36;25.90;;;12.10;;
26864;SDS011;40618;51.166;10.322;2022-12-15T07:58:02;32.47;;;14.07;;
26864;SDS011;40618;51.166;10.322;2022-12-15T08:00:28;35.63;;;16.20;;
26864;SDS011;40618;51.166;10.322;2022-12-15T08:02:53;44.50;;;18.63;;
26864;SDS011;40618;51.166;10.322;2022-12-15T08:05:19;35.20;;;15.45;;
26864;SDS011;40618;51.166;10.322;2022-12-15T08:07:45;27.15;;;13.10;;
26864;SDS011;40618;51.166;10.322;2022-12-15T08:10:10;26.30;;;13.18;;
26864;SDS011;40618;51.166;10.322;2022-12-15T08:12:36;26.67;;;13.52;;
26864;SDS011;40618;51.166;10.322;2022-12-15T08:15:02;23.85;;;12.90;;
26864;SDS011;40618;51.166;10.322;2022-12-15T08:17:27;23.45;;;11.75;;
26864;SDS011;40618;51.166;10.322;2022-12-15T08:19:53;31.55;;;14.90;;
26864;SDS011;40618;51.166;10.322;2022-12-15T08:22:19;39.78;;;18.50;;
26864;SDS011;40618;51.166;10.322;2022-12-15T08:24:44;62.45;;;29.75;;
26864;SDS011;40618;51.166;10.322;2022-12-15T08:27:10;71.00;;;32.60;;
26864;SDS011;40618;51.166;10.322;2022-12-15T08:29:35;71.78;;;36.78;;
26864;SDS011;40618;51.166;10.322;2022-12-15T08:32:01;41.90;;;21.23;;
26864;SDS011;40618;51.166;10.322;2022-12-15T08:34:26;70.85;;;31.58;;
26864;SDS011;40618;51.166;10.322;2022-12-15T08:36:52;67.85;;;28.80;;
26864;SDS011;40618;51.166;10.322;2022-12-15T08:39:19;57.90;;;23.98;;
26864;SDS011;40618;51.166;10.322;2022-12-15T08:41:45;51.17;;;21.92;;
26864;SDS011;40618;51.166;10.322;2022-12-15T08:44:10;57.15;;;28.48;;
26864;SDS011;40618;51.166;10.322;2022-12-15T08:46:36;98.18;;;43.03;;
26864;SDS011;40618;51.166;10.322;2022-12-15T08:49:02;84.30;;;37.17;;
26864;SDS011;40618;51.166;10.322;2022-12-15T08:51:29;72.93;;;32.00;;
26864;SDS011;40618;51.166;10.322;2022-12-15T08:53:57;85.45;;;36.20;;
26864;SDS011;40618;51.166;10.322;2022-12-15T08:56:24;94.47;;;40.03;;
26864;SDS011;40618;51.166;10.322;2022-12-15T08:58:53;81.13;;;36.17;;
26864;SDS011;40618;51.166;10.322;2022-12-15T09:01:22;74.70;;;31.52;;
26864;SDS011;40618;51.166;10.322;2022-12-15T09:03:51;65.85;;;31.02;;
26864;SDS011;40618;51.166;10.322;2022-12-15T09:06:18;60.15;;;29.65;;
26864;SDS011;40618;51.166;10.322;2022-12-15T09:11:14;55.63;;;25.67;;
26864;SDS011;40618;51.166;10.322;2022-12-15T09:13:39;64.80;;;28.52;;
26864;SDS011;40618;51.166;10.322;2022-12-15T09:16:06;60.42;;;27.20;;
26864;SDS011;40618;51.166;10.322;2022-12-15T09:18:37;49.55;;;22.20;;
26864;SDS011;40618;51.166;10.322;2022-12-15T09:21:10;45.78;;;19.63;;
26864;SDS011;40618;51.166;10.322;2022-12-15T09:23:37;39.20;;;16.35;;
26864;SDS011;40618;51.166;10.322;2022-12-15T09:26:05;34.17;;;15.30;;
26864;SDS011;40618;51.166;10.322;2022-12-15T09:28:35;33.38;;;17.58;;
26864;SDS011;40618;51.166;10.322;2022-12-15T09:31:08;33.60;;;16.98;;
26864;SDS011;40618;51.166;10.322;2022-12-15T09:33:40;43.45;;;20.98;;
26864;SDS011;40618;51.166;10.322;2022-12-15T09:36:07;44.13;;;19.42;;
26864;SDS011;40618;51.166;10.322;2022-12-15T09:38:37;45.92;;;22.67;;
26864;SDS011;40618;51.166;10.322;2022-12-15T09:41:17;48.22;;;23.58;;
26864;SDS011;40618;51.166;10.322;2022-12-15T09:49:53;55.50;;;25.27;;
26864;SDS011;40618;51.166;10.322;2022-12-15T09:52:22;59.25;;;27.52;;
26864;SDS011;40618;51.166;10.322;2022-12-15T09:54:57;61.90;;;26.50;;
26864;SDS011;40618;51.166;10.322;2022-12-15T10:00:43;50.92;;;25.77;;
26864;SDS011;40618;51.166;10.322;2022-12-15T10:06:18;56.10;;;23.80;;
26864;SDS011;40618;51.166;10.322;2022-12-15T10:11:49;53.92;;;20.75;;
26864;SDS011;40618;51.166;10.322;2022-12-15T10:17:27;27.58;;;13.98;;
26864;SDS011;40618;51.166;10.322;2022-12-15T10:20:06;47.78;;;21.98;;
26864;SDS011;40618;51.166;10.322;2022-12-15T10:22:48;41.25;;;17.90;;
26864;SDS011;40618;51.166;10.322;2022-12-15T10:25:28;31.67;;;15.80;;
26864;SDS011;40618;51.166;10.322;2022-12-15T10:30:33;28.98;;;13.02;;
26864;SDS011;40618;51.166;10.322;2022-12-15T10:33:16;29.33;;;13.75;;
26864;SDS011;40618;51.166;10.322;2022-12-15T10:35:48;33.28;;;16.02;;
26864;SDS011;40618;51.166;10.322;2022-12-15T10:41:07;29.38;;;14.80;;
26864;SDS011;40618;51.166;10.322;2022-12-15T10:43:46;30.73;;;17.20;;
26864;SDS011;40618;51.166;10.322;2022-12-15T10:46:15;48.03;;;21.45;;
26864;SDS011;40618;51.166;10.322;2022-12-15T10:51:31;36.17;;;16.23;;
26864;SDS011;40618;51.166;10.322;2022-12-15T10:56:34;30.02;;;13.98;;
26864;SDS011;40618;51.166;10.322;2022-12-15T11:04:56;28.55;;;14.45;;
26864;SDS011;40618;51.166;10.322;2022-12-15T11:07:37;25.50;;;13.40;;
26864;SDS011;40618;51.166;10.322;2022-12-15T11:10:25;24.30;;;12.70;;
26864;SDS011;40618;51.166;10.322;2022-12-15T11:13:17;27.17;;;12.60;;
26864;SDS011;40618;51.166;10.322;2022-12-15T11:18:35;37.13;;;17.20;;
26864;SDS011;40618;51.166;10.322;2022-12-15T11:21:35;28.10;;;13.65;;
26864;SDS011;40618;51.166;10.322;2022-12-15T11:24:11;25.33;;;12.13;;
26864;SDS011;40618;51.166;10.322;2022-12-15T11:29:59;24.17;;;11.88;;
26864;SDS011;40618;51.166;10.322;2022-12-15T11:32:40;23.88;;;12.23;;
26864;SDS011;40618;51.166;10.322;2022-12-15T11:35:43;25.58;;;13.38;;
26864;SDS011;40618;51.166;10.322;2022-12-15T11:38:20;23.30;;;11.30;;
26864;SDS011;40618;51.166;10.322;2022-12-15T11:40:55;22.65;;;12.05;;
26864;SDS011;40618;51.166;10.322;2022-12-15T11:46:14;21.88;;;11.13;;
26864;SDS011;40618;51.166;10.322;2022-12-15T11:51:48;20.20;;;10.70;;
26864;SDS011;40618;51.166;10.322;2022-12-15T11:58:26;18.30;;;9.68;;
26864;SDS011;40618;51.166;10.322;2022-12-15T12:07:19;25.65;;;12.65;;
26864;SDS011;40618;51.166;10.322;2022-12-15T12:19:58;24.70;;;12.70;;
26864;SDS011;40618;51.166;10.322;2022-12-15T12:25:00;28.10;;;12.98;;
26864;SDS011;40618;51.166;10.322;2022-12-15T12:30:11;33.30;;;15.27;;
26864;SDS011;40618;51.166;10.322;2022-12-15T12:37:52;26.50;;;11.88;;
26864;SDS011;40618;51.166;10.322;2022-12-15T12:40:30;20.33;;;9.63;;
26864;SDS011;40618;51.166;10.322;2022-12-15T12:43:01;24.90;;;10.27;;
26864;SDS011;40618;51.166;10.322;2022-12-15T12:48:02;18.52;;;8.52;;
26864;SDS011;40618;51.166;10.322;2022-12-15T12:50:40;16.15;;;8.85;;
26864;SDS011;40618;51.166;10.322;2022-12-15T12:53:19;16.73;;;8.82;;
26864;SDS011;40618;51.166;10.322;2022-12-15T12:55:56;23.13;;;9.40;;
26864;SDS011;40618;51.166;10.322;2022-12-15T12:58:37;36.30;;;14.65;;
26864;SDS011;40618;51.166;10.322;2022-12-15T13:01:25;23.65;;;10.65;;
26864;SDS011;40618;51.166;10.322;2022-12-15T13:04:06;19.83;;;9.88;;
26864;SDS011;40618;51.166;10.322;2022-12-15T13:11:51;16.58;;;8.73;;
26864;SDS011;40618;51.166;10.322;2022-12-15T13:17:13;19.08;;;8.10;;
26864;SDS011;40618;51.166;10.322;2022-12-15T13:20:13;16.35;;;8.45;;
26864;SDS011;40618;51.166;10.322;2022-12-15T13:22:44;15.77;;;8.85;;
26864;SDS011;40618;51.166;10.322;2022-12-15T13:25:33;110.18;;;31.60;;
26864;SDS011;40618;51.166;10.322;2022-12-15T13:28:40;73.07;;;22.73;;
26864;SDS011;40618;51.166;10.322;2022-12-15T13:39:07;18.83;;;9.23;;
26864;SDS011;40618;51.166;10.322;2022-12-15T13:44:19;17.95;;;9.85;;
26864;SDS011;40618;51.166;10.322;2022-12-15T13:46:54;18.63;;;10.00;;
26864;SDS011;40618;51.166;10.322;2022-12-15T13:49:30;164.45;;;74.43;;
26864;SDS011;40618;51.166;10.322;2022-12-15T13:52:23;39.13;;;19.48;;
26864;SDS011;40618;51.166;10.322;2022-12-15T13:55:01;18.23;;;9.77;;
26864;SDS011;40618;51.166;10.322;2022-12-15T13:57:44;25.40;;;12.15;;
26864;SDS011;40618;51.166;10.322;2022-12-15T14:00:19;16.55;;;8.68;;
26864;SDS011;40618;51.166;10.322;2022-12-15T14:02:45;19.48;;;9.27;;
26864;SDS011;40618;51.166;10.322;2022-12-15T14:07:42;23.48;;;9.88;;
26864;SDS011;40618;51.166;10.322;2022-12-15T14:10:23;22.98;;;10.98;;
26864;SDS011;40618;51.166;10.322;2022-12-15T14:13:02;20.83;;;10.73;;
26864;SDS011;40618;51.166;10.322;2022-12-15T14:15:43;33.20;;;14.82;;
26864;SDS011;40618;51.166;10.322;2022-12-15T14:18:25;23.25;;;11.57;;
26864;SDS011;40618;51.166;10.322;2022-12-15T14:20:52;32.13;;;13.57;;
26864;SDS011;40618;51.166;10.322;2022-12-15T14:24:01;36.45;;;13.88;;
26864;SDS011;40618;51.166;10.322;2022-12-15T14:28:41;40.35;;;15.63;;
26864;SDS011;40618;51.166;10.322;2022-12-15T14:31:10;74.75;;;25.52;;
26864;SDS011;40618;51.166;10.322;2022-12-15T14:33:44;49.72;;;20.70;;
26864;SDS011;40618;51.166;10.322;2022-12-15T14:36:14;36.33;;;15.45;;
26864;SDS011;40618;51.166;10.322;2022-12-15T14:38:49;36.78;;;15.98;;
26864;SDS011;40618;51.166;10.322;2022-12-15T14:41:38;53.15;;;19.83;;
26864;SDS011;40618;51.166;10.322;2022-12-15T14:44:17;48.55;;;20.58;;
26864;SDS011;40618;51.166;10.322;2022-12-15T14:46:53;73.03;;;29.63;;
26864;SDS011;40618;51.166;10.322;2022-12-15T14:49:20;114.78;;;43.30;;
26864;SDS011;40618;51.166;10.322;2022-12-15T14:51:52;117.15;;;46.80;;
26864;SDS011;40618;51.166;10.322;2022-12-15T14:54:26;99.70;;;36.85;;
26864;SDS011;40618;51.166;10.322;2022-12-15T14:59:44;58.35;;;24.98;;
26864;SDS011;40618;51.166;10.322;2022-12-15T15:04:58;53.08;;;23.00;;
26864;SDS011;40618;51.166;10.322;2022-12-15T15:07:31;60.45;;;25.33;;
26864;SDS011;40618;51.166;10.322;2022-12-15T15:10:00;58.00;;;26.05;;
26864;SDS011;40618;51.166;10.322;2022-12-15T15:12:42;47.55;;;20.77;;
26864;SDS011;40618;51.166;10.322;2022-12-15T15:15:15;34.83;;;15.40;;
26864;SDS011;40618;51.166;10.322;2022-12-15T15:17:47;25.92;;;12.15;;
26864;SDS011;40618;51.166;10.322;2022-12-15T15:20:26;22.08;;;10.05;;
26864;SDS011;40618;51.166;10.322;2022-12-15T15:23:09;23.08;;;10.95;;
26864;SDS011;40618;51.166;10.322;2022-12-15T15:26:05;26.08;;;13.02;;
26864;SDS011;40618;51.166;10.322;2022-12-15T15:28:35;21.75;;;10.80;;
26864;SDS011;40618;51.166;10.322;2022-12-15T15:34:05;15.63;;;8.25;;
26864;SDS011;40618;51.166;10.322;2022-12-15T15:36:32;17.38;;;9.02;;
26864;SDS011;40618;51.166;10.322;2022-12-15T15:39:03;23.95;;;10.77;;
26864;SDS011;40618;51.166;10.322;2022-12-15T15:41:38;31.95;;;15.88;;
26864;SDS011;40618;51.166;10.322;2022-12-15T15:44:05;41.22;;;20.45;;
26864;SDS011;40618;51.166;10.322;2022-12-15T15:46:45;31.70;;;16.58;;
26864;SDS011;40618;51.166;10.322;2022-12-15T15:49:16;28.33;;;14.07;;
26864;SDS011;40618;51.166;10.322;2022-12-15T15:51:44;40.40;;;19.27;;
26864;SDS011;40618;51.166;10.322;2022-12-15T15:54:12;42.72;;;18.77;;
26864;SDS011;40618;51.166;10.322;2022-12-15T15:56:41;45.13;;;19.60;;
26864;SDS011;40618;51.166;10.322;2022-12-15T15:59:12;32.08;;;15.95;;
26864;SDS011;40618;51.166;10.322;2022-12-15T16:01:40;34.47;;;17.08;;
26864;SDS011;40618;51.166;10.322;2022-12-15T16:04:07;39.30;;;18.35;;
26864;SDS011;40618;51.166;10.322;2022-12-15T16:06:33;34.13;;;16.27;;
26864;SDS011;40618;51.166;10.322;2022-12-15T16:09:00;28.33;;;14.30;;
26864;SDS011;40618;51.166;10.322;2022-12-15T16:11:27;32.25;;;14.82;;
26864;SDS011;40618;51.166;10.322;2022-12-15T16:13:56;28.13;;;14.57;;
26864;SDS011;40618;51.166;10.322;2022-12-15T16:16:26;34.00;;;17.50;;
26864;SDS011;40618;51.166;10.322;2022-12-15T16:18:56;32.42;;;16.52;;
26864;SDS011;40618;51.166;10.322;2022-12-15T16:21:24;41.42;;;19.10;;
26864;SDS011;40618;51.166;10.322;2022-12-15T16:23:51;29.10;;;14.18;;
26864;SDS011;40618;51.166;10.322;2022-12-15T16:26:22;33.50;;;17.00;;
26864;SDS011;40618;51.166;10.322;2022-12-15T16:28:53;37.42;;;17.90;;
26864;SDS011;40618;51.166;10.322;2022-12-15T16:31:32;43.33;;;20.70;;
26864;SDS011;40618;51.166;10.322;2022-12-15T16:34:00;37.20;;;18.67;;
26864;SDS011;40618;51.166;10.322;2022-12-15T16:36:27;33.90;;;17.30;;
26864;SDS011;40618;51.166;10.322;2022-12-15T16:38:53;29.48;;;14.20;;
26864;SDS011;40618;51.166;10.322;2022-12-15T16:41:19;25.23;;;12.30;;
26864;SDS011;40618;51.166;10.322;2022-12-15T16:43:47;25.40;;;12.65;;
26864;SDS011;40618;51.166;10.322;2022-12-15T16:46:22;20.55;;;13.05;;
26864;SDS011;40618;51.166;10.322;2022-12-15T16:48:48;21.63;;;11.57;;
26864;SDS011;40618;51.166;10.322;2022-12-15T16:51:20;23.33;;;11.23;;
26864;SDS011;40618;51.166;10.322;2022-12-15T16:54:13;23.85;;;11.68;;
26864;SDS011;40618;51.166;10.322;2022-12-15T16:56:45;20.98;;;10.90;;
26864;SDS011;40618;51.166;10.322;2022-12-15T16:59:15;24.13;;;11.88;;
26864;SDS011;40618;51.166;10.322;2022-12-15T17:01:42;26.13;;;12.68;;
26864;SDS011;40618;51.166;10.322;2022-12-15T17:04:08;29.10;;;12.98;;
26864;SDS011;40618;51.166;10.322;2022-12-15T17:06:34;36.20;;;17.42;;
26864;SDS011;40618;51.166;10.322;2022-12-15T17:09:00;32.42;;;16.55;;